createdAt,value
2022-10-12T00:00:00.187Z,102336.16
2022-10-12T00:02:27.220Z,102337.16
2022-10-12T00:04:54.140Z,102325.72
2022-10-12T00:07:21.091Z,102331.00
2022-10-12T00:09:48.185Z,102323.09
2022-10-12T00:12:15.170Z,102315.19
2022-10-12T00:14:42.137Z,102321.25
2022-10-12T00:17:09.102Z,102327.38
2022-10-12T00:19:36.237Z,102326.44
2022-10-12T00:22:03.245Z,102325.53
2022-10-12T00:24:30.246Z,102315.81
2022-10-12T00:26:58.000Z,102319.31
2022-10-12T00:29:24.962Z,102316.72
2022-10-12T00:31:52.304Z,102320.94
2022-10-12T00:34:19.499Z,102323.50
2022-10-12T00:36:46.617Z,102320.81
2022-10-12T00:39:13.567Z,102324.28
2022-10-12T00:41:44.080Z,102318.06
2022-10-12T00:44:50.670Z,102311.06
2022-10-12T00:47:36.951Z,102319.72
2022-10-12T00:50:16.092Z,102315.28
2022-10-12T00:52:59.153Z,102314.38
2022-10-12T00:55:30.288Z,102310.00
2022-10-12T00:57:58.271Z,102318.63
2022-10-12T01:00:25.557Z,102321.38
2022-10-12T01:02:54.878Z,102320.56
2022-10-12T01:05:23.918Z,102325.78
2022-10-12T01:07:51.288Z,102325.00
2022-10-12T01:10:18.646Z,102331.13
2022-10-12T01:12:49.383Z,102322.41
2022-10-12T01:15:17.101Z,102314.63
2022-10-12T01:17:54.248Z,102311.25
2022-10-12T01:20:43.155Z,102315.66
2022-10-12T01:23:18.848Z,102307.91
2022-10-12T01:26:34.845Z,102299.34
2022-10-12T01:29:07.725Z,102294.16
2022-10-12T01:31:52.936Z,102289.00
2022-10-12T01:34:31.553Z,102292.59
2022-10-12T01:37:21.502Z,102290.09
2022-10-12T01:39:54.705Z,102285.75
2022-10-12T01:42:34.087Z,102284.97
2022-10-12T01:45:17.421Z,102278.84
2022-10-12T01:47:49.872Z,102281.44
2022-10-12T01:50:17.740Z,102278.84
2022-10-12T01:53:06.193Z,102281.44
2022-10-12T01:55:38.240Z,102279.63
2022-10-12T01:58:30.429Z,102276.91
2022-10-12T02:01:38.039Z,102281.16
2022-10-12T02:04:30.255Z,102279.31
2022-10-12T02:07:06.348Z,102265.19
2022-10-12T02:09:35.937Z,102262.53
2022-10-12T02:12:12.805Z,102266.81
2022-10-12T02:14:56.492Z,102266.75
2022-10-12T02:17:24.352Z,102263.16
2022-10-12T02:19:59.308Z,102268.34
2022-10-12T02:22:34.369Z,102260.38
2022-10-12T02:25:07.354Z,102251.59
2022-10-12T02:27:37.430Z,102255.91
2022-10-12T02:30:05.447Z,102254.94
2022-10-12T02:32:48.175Z,102250.50
2022-10-12T02:35:32.136Z,102254.84
2022-10-12T02:38:20.432Z,102256.50
2022-10-12T02:41:02.767Z,102254.63
2022-10-12T02:43:38.324Z,102257.19
2022-10-12T02:46:10.540Z,102252.75
2022-10-12T02:48:44.643Z,102252.59
2022-10-12T02:51:13.939Z,102248.09
2022-10-12T02:53:45.451Z,102243.56
2022-10-12T02:56:15.715Z,102242.66
2022-10-12T02:58:46.391Z,102236.41
2022-10-12T03:01:17.136Z,102251.09
2022-10-12T03:03:46.289Z,102240.44
2022-10-12T03:06:15.471Z,102245.53
2022-10-12T03:08:43.860Z,102247.09
2022-10-12T03:11:20.014Z,102243.44
2022-10-12T03:13:53.798Z,102241.44
2022-10-12T03:16:24.473Z,102238.63
2022-10-12T03:18:54.439Z,102232.31
2022-10-12T03:21:24.520Z,102232.94
2022-10-12T03:23:54.532Z,102235.44
2022-10-12T03:26:24.522Z,102229.81
2022-10-12T03:28:54.615Z,102231.41
2022-10-12T03:31:24.670Z,102228.69
2022-10-12T03:33:54.916Z,102225.88
2022-10-12T03:36:25.431Z,102230.00
2022-10-12T03:38:57.859Z,102235.09
2022-10-12T03:41:32.522Z,102233.22
2022-10-12T03:44:02.846Z,102231.31
2022-10-12T03:46:33.222Z,102219.91
2022-10-12T03:49:03.731Z,102226.75
2022-10-12T03:51:36.330Z,102229.31
2022-10-12T03:54:47.228Z,102221.47
2022-10-12T03:57:46.892Z,102222.25
2022-10-12T04:00:14.988Z,102223.06
2022-10-12T04:02:42.438Z,102217.78
2022-10-12T04:05:10.005Z,102215.97
2022-10-12T04:07:37.624Z,102216.75
2022-10-12T04:10:05.959Z,102212.56
2022-10-12T04:12:33.354Z,102211.66
2022-10-12T04:15:00.816Z,102214.25
2022-10-12T04:17:28.170Z,102220.31
2022-10-12T04:19:55.676Z,102212.56
2022-10-12T04:22:24.762Z,102206.44
2022-10-12T04:25:29.167Z,102209.13
2022-10-12T04:28:05.136Z,102217.84
2022-10-12T04:30:46.482Z,102219.56
2022-10-12T04:33:23.476Z,102212.47
2022-10-12T04:35:58.152Z,102212.28
2022-10-12T04:38:30.372Z,102216.75
2022-10-12T04:41:00.562Z,102208.84
2022-10-12T04:43:29.102Z,102216.69
2022-10-12T04:46:01.516Z,102214.00
2022-10-12T04:48:29.998Z,102209.63
2022-10-12T04:50:58.380Z,102207.84
2022-10-12T04:53:26.737Z,102208.72
2022-10-12T04:55:55.378Z,102218.28
2022-10-12T04:58:23.694Z,102222.56
2022-10-12T05:00:51.901Z,102224.22
2022-10-12T05:03:20.135Z,102232.03
2022-10-12T05:05:48.383Z,102226.75
2022-10-12T05:08:16.657Z,102221.41
2022-10-12T05:10:47.095Z,102220.44
2022-10-12T05:13:14.420Z,102222.09
2022-10-12T05:15:43.076Z,102210.63
2022-10-12T05:18:10.703Z,102217.50
2022-10-12T05:20:37.861Z,102210.34
2022-10-12T05:23:05.061Z,102210.22
2022-10-12T05:25:32.440Z,102208.44
2022-10-12T05:27:59.876Z,102199.78
2022-10-12T05:30:26.955Z,102192.78
2022-10-12T05:32:54.006Z,102193.59
2022-10-12T05:35:20.949Z,102193.69
2022-10-12T05:37:48.049Z,102190.19
2022-10-12T05:40:15.233Z,102192.84
2022-10-12T05:42:42.222Z,102198.97
2022-10-12T05:45:10.044Z,102202.41
2022-10-12T05:47:37.405Z,102193.75
2022-10-12T05:50:05.186Z,102198.31
2022-10-12T05:52:32.163Z,102196.75
2022-10-12T05:54:59.161Z,102195.19
2022-10-12T05:57:26.231Z,102191.84
2022-10-12T05:59:53.306Z,102186.75
2022-10-12T06:02:20.424Z,102190.47
2022-10-12T06:04:47.415Z,102198.53
2022-10-12T06:07:14.399Z,102191.69
2022-10-12T06:09:41.553Z,102195.53
2022-10-12T06:12:08.716Z,102196.63
2022-10-12T06:14:35.816Z,102190.03
2022-10-12T06:17:02.786Z,102196.41
2022-10-12T06:19:29.759Z,102198.63
2022-10-12T06:21:57.433Z,102194.59
2022-10-12T06:24:24.429Z,102199.34
2022-10-12T06:26:51.548Z,102197.81
2022-10-12T06:29:18.886Z,102195.25
2022-10-12T06:31:51.235Z,102196.28
2022-10-12T06:34:18.710Z,102191.25
2022-10-12T06:36:45.732Z,102198.38
2022-10-12T06:39:13.130Z,102194.19
2022-10-12T06:41:40.188Z,102193.47
2022-10-12T06:44:08.304Z,102203.28
2022-10-12T06:46:35.455Z,102202.78
2022-10-12T06:49:02.495Z,102202.94
2022-10-12T06:51:29.531Z,102205.97
2022-10-12T06:53:57.019Z,102202.81
2022-10-12T06:56:24.192Z,102197.75
2022-10-12T06:58:56.164Z,102197.91
2022-10-12T07:01:23.681Z,102193.56
2022-10-12T07:03:50.743Z,102195.34
2022-10-12T07:06:17.822Z,102192.66
2022-10-12T07:08:45.247Z,102190.81
2022-10-12T07:11:17.004Z,102197.81
2022-10-12T07:13:45.372Z,102193.47
2022-10-12T07:16:12.568Z,102192.72
2022-10-12T07:18:40.224Z,102192.66
2022-10-12T07:21:07.477Z,102185.78
2022-10-12T07:23:35.169Z,102191.16
2022-10-12T07:26:02.142Z,102192.88
2022-10-12T07:28:29.341Z,102190.28
2022-10-12T07:31:03.449Z,102185.00
2022-10-12T07:33:36.541Z,102186.72
2022-10-12T07:36:14.761Z,102188.53
2022-10-12T07:38:48.224Z,102193.78
2022-10-12T07:41:15.865Z,102193.09
2022-10-12T07:43:43.692Z,102184.34
2022-10-12T07:46:11.849Z,102193.25
2022-10-12T07:48:44.530Z,102192.53
2022-10-12T07:51:16.141Z,102194.63
2022-10-12T07:53:43.335Z,102200.97
2022-10-12T07:56:15.416Z,102198.47
2022-10-12T07:58:56.264Z,102206.44
2022-10-12T08:01:30.151Z,102211.25
2022-10-12T08:04:01.154Z,102207.53
2022-10-12T08:06:34.429Z,102207.97
2022-10-12T08:09:04.228Z,102211.75
2022-10-12T08:11:31.306Z,102211.09
2022-10-12T08:13:58.512Z,102213.25
2022-10-12T08:16:25.903Z,102211.91
2022-10-12T08:18:53.115Z,102200.69
2022-10-12T08:21:20.934Z,102204.72
2022-10-12T08:23:48.712Z,102196.56
2022-10-12T08:26:17.703Z,102197.97
2022-10-12T08:28:45.012Z,102187.09
2022-10-12T08:31:16.463Z,102197.28
2022-10-12T08:33:44.013Z,102195.00
2022-10-12T08:36:12.066Z,102190.16
2022-10-12T08:38:39.169Z,102194.94
2022-10-12T08:41:49.015Z,102190.06
2022-10-12T08:44:45.499Z,102192.13
2022-10-12T08:47:21.109Z,102187.25
2022-10-12T08:49:50.009Z,102187.72
2022-10-12T08:52:38.871Z,102187.56
2022-10-12T08:55:34.576Z,102187.34
2022-10-12T08:58:02.794Z,102182.50
2022-10-12T09:03:24.141Z,102190.38
2022-10-12T09:06:18.665Z,102190.81
2022-10-12T09:09:17.366Z,102197.34
2022-10-12T09:11:49.967Z,102190.69
2022-10-12T09:14:32.687Z,102206.78
2022-10-12T09:17:02.683Z,102204.44
2022-10-12T09:19:40.862Z,102202.94
2022-10-12T09:22:18.751Z,102208.34
2022-10-12T09:24:49.072Z,102204.91
2022-10-12T09:27:19.437Z,102213.75
2022-10-12T09:30:00.784Z,102209.56
2022-10-12T09:32:59.638Z,102204.38
2022-10-12T09:35:27.252Z,102202.78
2022-10-12T09:37:55.140Z,102202.00
2022-10-12T09:40:31.204Z,102197.78
2022-10-12T09:43:01.861Z,102197.94
2022-10-12T09:45:33.405Z,102197.22
2022-10-12T09:48:15.439Z,102195.63
2022-10-12T09:50:55.918Z,102191.25
2022-10-12T09:53:28.714Z,102190.47
2022-10-12T09:56:05.590Z,102191.50
2022-10-12T09:58:50.134Z,102181.94
2022-10-12T10:01:27.550Z,102183.03
2022-10-12T10:04:25.242Z,102178.72
2022-10-12T10:06:52.551Z,102180.63
2022-10-12T10:09:35.577Z,102166.69
2022-10-12T10:12:26.930Z,102164.91
2022-10-12T10:14:57.261Z,102161.44
2022-10-12T10:17:31.757Z,102156.34
2022-10-12T10:20:36.384Z,102158.28
2022-10-12T10:23:05.370Z,102161.91
2022-10-12T10:25:34.107Z,102167.31
2022-10-12T10:28:24.522Z,102171.81
2022-10-12T10:31:35.550Z,102168.38
2022-10-12T10:34:17.474Z,102165.84
2022-10-12T10:36:55.973Z,102166.84
2022-10-12T10:39:32.291Z,102166.03
2022-10-12T10:42:17.952Z,102166.97
2022-10-12T10:45:08.716Z,102161.75
2022-10-12T10:47:46.369Z,102154.78
2022-10-12T10:50:42.220Z,102159.25
2022-10-12T10:53:30.270Z,102152.94
2022-10-12T10:56:30.344Z,102145.06
2022-10-12T10:59:21.250Z,102149.66
2022-10-12T11:01:58.935Z,102145.28
2022-10-12T11:04:51.176Z,102146.22
2022-10-12T11:07:31.647Z,102138.31
2022-10-12T11:10:04.392Z,102142.78
2022-10-12T11:12:40.676Z,102134.03
2022-10-12T11:15:30.128Z,102134.94
2022-10-12T11:18:39.604Z,102127.91
2022-10-12T11:21:36.885Z,102127.03
2022-10-12T11:24:18.730Z,102122.63
2022-10-12T11:26:50.153Z,102121.78
2022-10-12T11:29:18.193Z,102106.78
2022-10-12T11:32:03.508Z,102101.50
2022-10-12T11:34:41.481Z,102103.25
2022-10-12T11:37:20.080Z,102100.59
2022-10-12T11:39:53.746Z,102105.00
2022-10-12T11:42:43.563Z,102101.44
2022-10-12T11:45:27.301Z,102095.22
2022-10-12T11:48:01.998Z,102094.25
2022-10-12T11:50:46.977Z,102084.34
2022-10-12T11:53:28.210Z,102089.56
2022-10-12T11:55:58.470Z,102088.53
2022-10-12T11:58:59.864Z,102093.78
2022-10-12T12:01:52.249Z,102097.22
2022-10-12T12:04:48.582Z,102100.66
2022-10-12T12:07:42.653Z,102099.69
2022-10-12T12:10:28.026Z,102100.56
2022-10-12T12:13:14.697Z,102101.38
2022-10-12T12:15:47.722Z,102098.69
2022-10-12T12:18:24.399Z,102095.06
2022-10-12T12:21:07.110Z,102091.47
2022-10-12T12:23:51.635Z,102092.41
2022-10-12T12:26:26.186Z,102091.56
2022-10-12T12:29:19.441Z,102089.84
2022-10-12T12:31:59.248Z,102080.06
2022-10-12T12:34:27.849Z,102079.16
2022-10-12T12:36:55.273Z,102080.00
2022-10-12T12:39:35.004Z,102068.41
2022-10-12T12:42:09.478Z,102062.16
2022-10-12T12:44:42.746Z,102065.56
2022-10-12T12:50:26.537Z,102057.53
2022-10-12T12:53:20.781Z,102054.06
2022-10-12T12:56:03.119Z,102058.44
2022-10-12T12:59:06.888Z,102060.22
2022-10-12T13:02:28.240Z,102053.03
2022-10-12T13:05:40.564Z,102047.38
2022-10-12T13:08:30.457Z,102046.41
2022-10-12T13:11:37.005Z,102042.78
2022-10-12T13:14:47.039Z,102043.53
2022-10-12T13:17:42.482Z,102032.03
2022-10-12T13:20:19.924Z,102033.81
2022-10-12T13:22:50.388Z,102029.56
2022-10-12T13:25:49.988Z,102033.38
2022-10-12T13:28:27.439Z,102034.38
2022-10-12T13:31:02.747Z,102028.25
2022-10-12T13:33:38.155Z,102024.75
2022-10-12T13:36:29.726Z,102032.69
2022-10-12T13:39:14.258Z,102024.81
2022-10-12T13:41:41.977Z,102018.56
2022-10-12T13:44:28.124Z,102027.41
2022-10-12T13:46:59.258Z,102033.69
2022-10-12T13:49:41.551Z,102032.84
2022-10-12T13:52:14.194Z,102028.50
2022-10-12T13:54:47.484Z,102027.63
2022-10-12T13:57:46.252Z,102027.66
2022-10-12T14:00:16.350Z,102024.06
2022-10-12T14:02:58.440Z,102015.13
2022-10-12T14:05:29.125Z,102015.09
2022-10-12T14:08:29.509Z,102002.69
2022-10-12T14:10:58.429Z,102001.78
2022-10-12T14:13:34.773Z,102016.69
2022-10-12T14:16:04.918Z,102011.16
2022-10-12T14:18:45.313Z,101993.28
2022-10-12T14:21:27.425Z,101995.06
2022-10-12T14:24:09.220Z,101994.31
2022-10-12T14:26:42.776Z,101988.09
2022-10-12T14:29:39.506Z,101985.41
2022-10-12T14:32:11.432Z,101988.22
2022-10-12T14:34:49.530Z,101984.81
2022-10-12T14:37:28.732Z,101983.31
2022-10-12T14:40:00.579Z,101982.63
2022-10-12T14:42:29.548Z,101980.16
2022-10-12T14:44:57.078Z,101980.25
2022-10-12T14:47:32.241Z,101978.53
2022-10-12T14:50:01.555Z,101964.38
2022-10-12T14:52:46.336Z,101960.84
2022-10-12T14:55:29.329Z,101953.72
2022-10-12T14:57:56.578Z,101959.94
2022-10-12T15:00:32.427Z,101959.97
2022-10-12T15:03:02.451Z,101952.03
2022-10-12T15:05:32.386Z,101936.97
2022-10-12T15:08:01.211Z,101933.44
2022-10-12T15:10:38.558Z,101923.69
2022-10-12T15:13:05.932Z,101924.59
2022-10-12T15:15:47.497Z,101913.09
2022-10-12T15:18:17.831Z,101923.78
2022-10-12T15:20:51.939Z,101915.84
2022-10-12T15:23:19.197Z,101909.72
2022-10-12T15:25:59.787Z,101914.19
2022-10-12T15:28:29.812Z,101908.91
2022-10-12T15:31:16.981Z,101909.81
2022-10-12T15:33:45.486Z,101896.59
2022-10-12T15:36:12.590Z,101902.84
2022-10-12T15:38:40.037Z,101909.06
2022-10-12T15:41:16.229Z,101915.31
2022-10-12T15:43:43.290Z,101918.91
2022-10-12T15:46:12.290Z,101918.94
2022-10-12T15:48:40.409Z,101913.59
2022-10-12T15:51:23.196Z,101906.50
2022-10-12T15:53:54.346Z,101913.59
2022-10-12T15:56:22.194Z,101905.69
2022-10-12T15:58:49.342Z,101912.81
2022-10-12T16:01:29.291Z,101902.19
2022-10-12T16:03:56.447Z,101903.09
2022-10-12T16:06:23.611Z,101899.59
2022-10-12T16:08:50.751Z,101901.38
2022-10-12T16:11:18.948Z,101908.50
2022-10-12T16:13:52.645Z,101899.63
2022-10-12T16:16:23.883Z,101899.69
2022-10-12T16:18:53.904Z,101898.84
2022-10-12T16:21:21.048Z,101903.34
2022-10-12T16:23:48.108Z,101913.09
2022-10-12T16:26:15.851Z,101908.75
2022-10-12T16:28:43.126Z,101910.56
2022-10-12T16:31:15.326Z,101905.28
2022-10-12T16:33:42.511Z,101907.97
2022-10-12T16:36:15.630Z,101912.34
2022-10-12T16:38:43.992Z,101898.22
2022-10-12T16:41:21.386Z,101896.47
2022-10-12T16:43:48.714Z,101894.69
2022-10-12T16:46:15.951Z,101899.97
2022-10-12T16:48:44.534Z,101899.09
2022-10-12T16:51:13.402Z,101898.19
2022-10-12T16:53:42.558Z,101891.97
2022-10-12T16:56:09.911Z,101897.28
2022-10-12T16:58:36.937Z,101888.44
2022-10-12T17:01:14.324Z,101897.22
2022-10-12T17:03:43.118Z,101898.94
2022-10-12T17:06:10.693Z,101900.66
2022-10-12T17:08:39.456Z,101904.09
2022-10-12T17:11:10.168Z,101896.13
2022-10-12T17:13:45.188Z,101899.63
2022-10-12T17:16:33.699Z,101909.25
2022-10-12T17:19:00.735Z,101898.59
2022-10-12T17:21:28.774Z,101909.09
2022-10-12T17:23:57.633Z,101893.19
2022-10-12T17:26:25.156Z,101906.31
2022-10-12T17:28:52.235Z,101901.81
2022-10-12T17:31:19.871Z,101897.38
2022-10-12T17:33:46.900Z,101901.69
2022-10-12T17:36:14.268Z,101896.34
2022-10-12T17:38:41.289Z,101891.00
2022-10-12T17:41:08.421Z,101892.75
2022-10-12T17:43:35.412Z,101897.09
2022-10-12T17:46:06.117Z,101890.91
2022-10-12T17:48:34.130Z,101890.84
2022-10-12T17:51:10.063Z,101887.31
2022-10-12T17:53:37.408Z,101875.84
2022-10-12T17:56:06.983Z,101886.38
2022-10-12T17:58:34.705Z,101888.97
2022-10-12T18:01:11.558Z,101894.22
2022-10-12T18:03:41.450Z,101897.69
2022-10-12T18:06:15.914Z,101893.28
2022-10-12T18:08:44.107Z,101896.75
2022-10-12T18:11:11.869Z,101891.44
2022-10-12T18:13:38.973Z,101895.78
2022-10-12T18:16:11.497Z,101896.59
2022-10-12T18:18:38.900Z,101893.88
2022-10-12T18:21:08.295Z,101901.72
2022-10-12T18:23:35.385Z,101898.13
2022-10-12T18:26:05.353Z,101898.97
2022-10-12T18:28:32.587Z,101897.09
2022-10-12T18:30:59.881Z,101898.75
2022-10-12T18:33:27.707Z,101892.50
2022-10-12T18:35:55.212Z,101894.16
2022-10-12T18:38:22.536Z,101887.91
2022-10-12T18:40:49.615Z,101889.63
2022-10-12T18:43:16.803Z,101891.31
2022-10-12T18:45:44.928Z,101888.63
2022-10-12T18:48:13.547Z,101894.69
2022-10-12T18:50:40.732Z,101897.28
2022-10-12T18:53:08.234Z,101888.38
2022-10-12T18:55:39.993Z,101884.78
2022-10-12T18:58:07.573Z,101887.38
2022-10-12T19:00:34.674Z,101890.88
2022-10-12T19:03:01.803Z,101888.22
2022-10-12T19:05:28.821Z,101869.72
2022-10-12T19:07:55.871Z,101875.84
2022-10-12T19:10:22.858Z,101876.69
2022-10-12T19:12:49.859Z,101872.31
2022-10-12T19:15:16.926Z,101880.19
2022-10-12T19:17:44.052Z,101870.50
2022-10-12T19:20:11.572Z,101869.53
2022-10-12T19:22:38.644Z,101869.50
2022-10-12T19:25:06.571Z,101872.03
2022-10-12T19:27:33.768Z,101871.06
2022-10-12T19:30:01.953Z,101868.34
2022-10-12T19:32:29.188Z,101863.88
2022-10-12T19:34:56.727Z,101867.28
2022-10-12T19:37:23.827Z,101860.25
2022-10-12T19:39:51.092Z,101862.84
2022-10-12T19:42:18.578Z,101870.66
2022-10-12T19:44:46.052Z,101871.59
2022-10-12T19:47:13.331Z,101863.72
2022-10-12T19:49:45.114Z,101861.00
2022-10-12T19:52:12.815Z,101868.97
2022-10-12T19:54:39.934Z,101866.34
2022-10-12T19:57:07.061Z,101865.47
2022-10-12T19:59:34.419Z,101856.72
2022-10-12T20:02:01.594Z,101859.38
2022-10-12T20:04:28.590Z,101858.50
2022-10-12T20:06:55.530Z,101860.28
2022-10-12T20:09:22.589Z,101862.03
2022-10-12T20:11:49.644Z,101859.41
2022-10-12T20:14:16.604Z,101861.19
2022-10-12T20:16:43.779Z,101857.66
2022-10-12T20:19:10.909Z,101855.00
2022-10-12T20:21:38.268Z,101855.09
2022-10-12T20:24:09.402Z,101860.38
2022-10-12T20:26:36.502Z,101858.72
2022-10-12T20:29:03.630Z,101861.41
2022-10-12T20:31:30.628Z,101857.03
2022-10-12T20:33:58.321Z,101851.81
2022-10-12T20:36:29.226Z,101858.84
2022-10-12T20:38:58.601Z,101859.66
2022-10-12T20:41:26.346Z,101852.63
2022-10-12T20:43:58.803Z,101856.09
2022-10-12T20:46:26.345Z,101853.38
2022-10-12T20:49:01.118Z,101847.22
2022-10-12T20:51:36.551Z,101848.03
2022-10-12T20:54:05.795Z,101854.19
2022-10-12T20:56:35.370Z,101852.44
2022-10-12T20:59:02.513Z,101863.88
2022-10-12T21:01:29.710Z,101852.47
2022-10-12T21:03:57.163Z,101852.56
2022-10-12T21:06:24.364Z,101848.22
2022-10-12T21:08:54.236Z,101852.72
2022-10-12T21:11:22.315Z,101851.00
2022-10-12T21:13:49.760Z,101848.44
2022-10-12T21:16:16.840Z,101838.84
2022-10-12T21:18:43.841Z,101841.56
2022-10-12T21:21:20.546Z,101838.06
2022-10-12T21:24:01.160Z,101836.34
2022-10-12T21:26:30.858Z,101837.22
2022-10-12T21:28:59.838Z,101835.47
2022-10-12T21:31:31.995Z,101841.63
2022-10-12T21:34:06.735Z,101843.38
2022-10-12T21:36:36.634Z,101836.31
2022-10-12T21:39:09.350Z,101843.34
2022-10-12T21:41:36.316Z,101841.59
2022-10-12T21:44:03.934Z,101838.94
2022-10-12T21:46:33.591Z,101840.72
2022-10-12T21:49:02.574Z,101837.22
2022-10-12T21:51:31.446Z,101829.31
2022-10-12T21:53:58.701Z,101827.56
2022-10-12T21:56:32.333Z,101828.44
2022-10-12T21:59:01.700Z,101824.91
2022-10-12T22:01:38.071Z,101827.56
2022-10-12T22:04:10.213Z,101822.28
2022-10-12T22:06:37.248Z,101822.28
2022-10-12T22:09:12.929Z,101821.44
2022-10-12T22:11:39.945Z,101824.06
2022-10-12T22:14:10.210Z,101824.94
2022-10-12T22:16:37.337Z,101828.44
2022-10-12T22:19:07.509Z,101825.88
2022-10-12T22:21:36.461Z,101817.91
2022-10-12T22:24:03.843Z,101815.25
2022-10-12T22:26:31.203Z,101817.00
2022-10-12T22:29:00.027Z,101819.63
2022-10-12T22:31:27.642Z,101813.50
2022-10-12T22:33:56.154Z,101815.25
2022-10-12T22:36:23.384Z,101819.66
2022-10-12T22:38:50.318Z,101817.91
2022-10-12T22:41:20.693Z,101810.91
2022-10-12T22:43:56.303Z,101817.97
2022-10-12T22:46:25.594Z,101809.22
2022-10-12T22:48:53.986Z,101808.34
2022-10-12T22:51:31.619Z,101803.13
2022-10-12T22:53:59.272Z,101807.56
2022-10-12T22:56:26.292Z,101799.69
2022-10-12T22:59:02.155Z,101805.91
2022-10-12T23:01:29.441Z,101806.81
2022-10-12T23:03:56.717Z,101802.44
2022-10-12T23:06:25.224Z,101800.72
2022-10-12T23:08:52.604Z,101803.44
2022-10-12T23:11:23.689Z,101806.13
2022-10-12T23:13:50.946Z,101800.91
2022-10-12T23:16:25.093Z,101793.88
2022-10-12T23:19:01.425Z,101798.22
2022-10-12T23:21:31.063Z,101799.97
2022-10-12T23:23:59.712Z,101794.69
2022-10-12T23:26:29.333Z,101798.19
2022-10-12T23:28:57.103Z,101789.41
2022-10-12T23:31:27.858Z,101786.78
2022-10-12T23:34:06.112Z,101788.53
2022-10-12T23:36:33.622Z,101790.31
2022-10-12T23:39:02.567Z,101778.06
2022-10-12T23:41:29.573Z,101776.34
2022-10-12T23:43:56.805Z,101776.41
2022-10-12T23:46:23.842Z,101778.16
2022-10-12T23:48:50.818Z,101776.41
2022-10-12T23:51:17.870Z,101771.16
2022-10-12T23:53:44.971Z,101773.81
2022-10-12T23:56:12.381Z,101773.81
2022-10-12T23:58:40.664Z,101763.25
